sensor_id;sensor_type;location;lat;lon;timestamp;P1;durP1;ratioP1;P2;durP2;ratioP2
16820;SDS011;8527;49.740;6.604;2022-11-20T00:02:33;10.32;;;5.85;;
16820;SDS011;8527;49.740;6.604;2022-11-20T00:07:41;9.70;;;5.45;;
16820;SDS011;8527;49.740;6.604;2022-11-20T00:12:42;12.95;;;6.55;;
16820;SDS011;8527;49.740;6.604;2022-11-20T00:17:44;8.50;;;5.40;;
16820;SDS011;8527;49.740;6.604;2022-11-20T00:22:49;9.00;;;5.70;;
16820;SDS011;8527;49.740;6.604;2022-11-20T00:27:53;11.90;;;5.70;;
16820;SDS011;8527;49.740;6.604;2022-11-20T00:32:56;8.18;;;5.15;;
16820;SDS011;8527;49.740;6.604;2022-11-20T00:37:59;6.07;;;3.92;;
16820;SDS011;8527;49.740;6.604;2022-11-20T00:43:03;7.45;;;4.50;;
16820;SDS011;8527;49.740;6.604;2022-11-20T00:48:05;9.77;;;5.05;;
16820;SDS011;8527;49.740;6.604;2022-11-20T00:53:14;9.93;;;5.28;;
16820;SDS011;8527;49.740;6.604;2022-11-20T00:58:13;9.70;;;5.30;;
16820;SDS011;8527;49.740;6.604;2022-11-20T01:03:11;9.35;;;5.00;;
16820;SDS011;8527;49.740;6.604;2022-11-20T01:08:10;8.88;;;4.88;;
16820;SDS011;8527;49.740;6.604;2022-11-20T01:13:11;9.40;;;5.13;;
16820;SDS011;8527;49.740;6.604;2022-11-20T01:18:22;8.57;;;5.40;;
16820;SDS011;8527;49.740;6.604;2022-11-20T01:23:20;7.45;;;5.03;;
16820;SDS011;8527;49.740;6.604;2022-11-20T01:28:21;7.03;;;4.40;;
16820;SDS011;8527;49.740;6.604;2022-11-20T01:33:20;7.65;;;4.70;;
16820;SDS011;8527;49.740;6.604;2022-11-20T01:38:21;10.23;;;4.82;;
16820;SDS011;8527;49.740;6.604;2022-11-20T01:43:22;8.93;;;4.72;;
16820;SDS011;8527;49.740;6.604;2022-11-20T01:48:25;8.48;;;4.55;;
16820;SDS011;8527;49.740;6.604;2022-11-20T01:53:27;8.95;;;5.22;;
16820;SDS011;8527;49.740;6.604;2022-11-20T01:58:32;9.63;;;5.90;;
16820;SDS011;8527;49.740;6.604;2022-11-20T02:03:37;11.00;;;6.07;;
16820;SDS011;8527;49.740;6.604;2022-11-20T02:08:39;10.68;;;6.05;;
16820;SDS011;8527;49.740;6.604;2022-11-20T02:13:40;11.98;;;6.10;;
16820;SDS011;8527;49.740;6.604;2022-11-20T02:18:52;14.13;;;7.45;;
16820;SDS011;8527;49.740;6.604;2022-11-20T02:29:06;9.70;;;6.25;;
16820;SDS011;8527;49.740;6.604;2022-11-20T02:34:09;10.20;;;6.10;;
16820;SDS011;8527;49.740;6.604;2022-11-20T02:39:13;11.45;;;6.55;;
16820;SDS011;8527;49.740;6.604;2022-11-20T02:44:22;9.63;;;6.55;;
16820;SDS011;8527;49.740;6.604;2022-11-20T02:49:24;10.00;;;5.75;;
16820;SDS011;8527;49.740;6.604;2022-11-20T02:54:25;8.88;;;5.57;;
16820;SDS011;8527;49.740;6.604;2022-11-20T02:59:23;10.75;;;5.60;;
16820;SDS011;8527;49.740;6.604;2022-11-20T03:04:22;14.07;;;6.40;;
16820;SDS011;8527;49.740;6.604;2022-11-20T03:09:20;8.48;;;5.70;;
16820;SDS011;8527;49.740;6.604;2022-11-20T03:14:24;10.35;;;5.95;;
16820;SDS011;8527;49.740;6.604;2022-11-20T03:19:25;12.18;;;5.63;;
16820;SDS011;8527;49.740;6.604;2022-11-20T03:24:26;8.95;;;5.63;;
16820;SDS011;8527;49.740;6.604;2022-11-20T03:29:30;9.40;;;5.60;;
16820;SDS011;8527;49.740;6.604;2022-11-20T03:34:34;15.00;;;7.70;;
16820;SDS011;8527;49.740;6.604;2022-11-20T03:39:33;11.23;;;6.30;;
16820;SDS011;8527;49.740;6.604;2022-11-20T03:44:36;8.40;;;5.53;;
16820;SDS011;8527;49.740;6.604;2022-11-20T03:49:34;7.95;;;4.90;;
16820;SDS011;8527;49.740;6.604;2022-11-20T03:54:34;9.27;;;5.50;;
16820;SDS011;8527;49.740;6.604;2022-11-20T03:59:42;11.00;;;5.47;;
16820;SDS011;8527;49.740;6.604;2022-11-20T04:04:40;11.07;;;5.40;;
16820;SDS011;8527;49.740;6.604;2022-11-20T04:09:39;7.70;;;4.95;;
16820;SDS011;8527;49.740;6.604;2022-11-20T04:14:43;9.32;;;5.00;;
16820;SDS011;8527;49.740;6.604;2022-11-20T04:19:52;10.75;;;5.93;;
16820;SDS011;8527;49.740;6.604;2022-11-20T04:24:51;15.98;;;7.40;;
16820;SDS011;8527;49.740;6.604;2022-11-20T04:29:54;14.93;;;7.40;;
16820;SDS011;8527;49.740;6.604;2022-11-20T04:34:59;10.05;;;6.60;;
16820;SDS011;8527;49.740;6.604;2022-11-20T04:40:04;14.20;;;6.88;;
16820;SDS011;8527;49.740;6.604;2022-11-20T04:45:06;12.15;;;7.05;;
16820;SDS011;8527;49.740;6.604;2022-11-20T04:50:07;13.35;;;7.53;;
16820;SDS011;8527;49.740;6.604;2022-11-20T04:55:06;11.13;;;6.50;;
16820;SDS011;8527;49.740;6.604;2022-11-20T05:00:09;10.10;;;6.55;;
16820;SDS011;8527;49.740;6.604;2022-11-20T05:05:08;12.57;;;6.72;;
16820;SDS011;8527;49.740;6.604;2022-11-20T05:10:07;12.02;;;6.53;;
16820;SDS011;8527;49.740;6.604;2022-11-20T05:15:09;11.68;;;6.40;;
16820;SDS011;8527;49.740;6.604;2022-11-20T05:20:11;11.38;;;6.53;;
16820;SDS011;8527;49.740;6.604;2022-11-20T05:25:10;12.98;;;6.45;;
16820;SDS011;8527;49.740;6.604;2022-11-20T05:30:15;10.65;;;6.03;;
16820;SDS011;8527;49.740;6.604;2022-11-20T05:35:26;11.15;;;5.88;;
16820;SDS011;8527;49.740;6.604;2022-11-20T05:40:24;10.38;;;6.18;;
16820;SDS011;8527;49.740;6.604;2022-11-20T05:45:25;13.95;;;7.65;;
16820;SDS011;8527;49.740;6.604;2022-11-20T05:50:27;11.88;;;7.38;;
16820;SDS011;8527;49.740;6.604;2022-11-20T05:55:28;12.25;;;6.10;;
16820;SDS011;8527;49.740;6.604;2022-11-20T06:00:29;13.43;;;6.75;;
16820;SDS011;8527;49.740;6.604;2022-11-20T06:05:27;12.48;;;6.55;;
16820;SDS011;8527;49.740;6.604;2022-11-20T06:10:43;13.00;;;7.03;;
16820;SDS011;8527;49.740;6.604;2022-11-20T06:15:50;12.73;;;7.50;;
16820;SDS011;8527;49.740;6.604;2022-11-20T06:20:49;17.60;;;8.35;;
16820;SDS011;8527;49.740;6.604;2022-11-20T06:25:56;15.17;;;8.17;;
16820;SDS011;8527;49.740;6.604;2022-11-20T06:31:01;16.10;;;8.40;;
16820;SDS011;8527;49.740;6.604;2022-11-20T06:36:00;15.93;;;8.43;;
16820;SDS011;8527;49.740;6.604;2022-11-20T06:40:59;15.38;;;8.68;;
16820;SDS011;8527;49.740;6.604;2022-11-20T06:46:03;16.92;;;9.55;;
16820;SDS011;8527;49.740;6.604;2022-11-20T06:51:07;17.58;;;9.00;;
16820;SDS011;8527;49.740;6.604;2022-11-20T06:56:06;15.68;;;9.00;;
16820;SDS011;8527;49.740;6.604;2022-11-20T07:01:09;16.15;;;8.43;;
16820;SDS011;8527;49.740;6.604;2022-11-20T07:06:10;17.35;;;8.93;;
16820;SDS011;8527;49.740;6.604;2022-11-20T07:11:11;16.95;;;8.60;;
16820;SDS011;8527;49.740;6.604;2022-11-20T07:16:14;16.98;;;9.30;;
16820;SDS011;8527;49.740;6.604;2022-11-20T07:21:13;15.52;;;9.02;;
16820;SDS011;8527;49.740;6.604;2022-11-20T07:26:11;16.48;;;9.13;;
16820;SDS011;8527;49.740;6.604;2022-11-20T07:31:10;19.70;;;8.70;;
16820;SDS011;8527;49.740;6.604;2022-11-20T07:36:14;17.65;;;9.73;;
16820;SDS011;8527;49.740;6.604;2022-11-20T07:41:13;16.40;;;8.80;;
16820;SDS011;8527;49.740;6.604;2022-11-20T07:46:30;16.88;;;9.30;;
16820;SDS011;8527;49.740;6.604;2022-11-20T07:51:31;17.27;;;9.20;;
16820;SDS011;8527;49.740;6.604;2022-11-20T07:56:31;20.58;;;11.27;;
16820;SDS011;8527;49.740;6.604;2022-11-20T08:01:37;17.95;;;10.82;;
16820;SDS011;8527;49.740;6.604;2022-11-20T08:06:42;17.65;;;10.90;;
16820;SDS011;8527;49.740;6.604;2022-11-20T08:11:42;20.40;;;10.80;;
16820;SDS011;8527;49.740;6.604;2022-11-20T08:16:53;19.52;;;10.77;;
16820;SDS011;8527;49.740;6.604;2022-11-20T08:21:54;23.20;;;11.20;;
16820;SDS011;8527;49.740;6.604;2022-11-20T08:26:53;19.83;;;10.35;;
16820;SDS011;8527;49.740;6.604;2022-11-20T08:31:53;18.95;;;9.48;;
16820;SDS011;8527;49.740;6.604;2022-11-20T08:36:54;19.00;;;10.18;;
16820;SDS011;8527;49.740;6.604;2022-11-20T08:41:53;19.05;;;10.45;;
16820;SDS011;8527;49.740;6.604;2022-11-20T08:46:52;17.80;;;11.23;;
16820;SDS011;8527;49.740;6.604;2022-11-20T08:51:51;16.27;;;9.35;;
16820;SDS011;8527;49.740;6.604;2022-11-20T08:56:56;16.95;;;9.75;;
16820;SDS011;8527;49.740;6.604;2022-11-20T09:01:57;16.25;;;8.82;;
16820;SDS011;8527;49.740;6.604;2022-11-20T09:06:56;15.30;;;8.10;;
16820;SDS011;8527;49.740;6.604;2022-11-20T09:11:57;15.50;;;6.93;;
16820;SDS011;8527;49.740;6.604;2022-11-20T09:16:55;13.18;;;6.80;;
16820;SDS011;8527;49.740;6.604;2022-11-20T09:21:55;19.77;;;8.65;;
16820;SDS011;8527;49.740;6.604;2022-11-20T09:26:57;16.77;;;7.22;;
16820;SDS011;8527;49.740;6.604;2022-11-20T09:31:56;10.48;;;5.78;;
16820;SDS011;8527;49.740;6.604;2022-11-20T09:36:54;11.50;;;8.05;;
16820;SDS011;8527;49.740;6.604;2022-11-20T09:42:04;9.38;;;6.18;;
16820;SDS011;8527;49.740;6.604;2022-11-20T09:47:21;15.77;;;7.70;;
16820;SDS011;8527;49.740;6.604;2022-11-20T09:52:32;9.98;;;5.88;;
16820;SDS011;8527;49.740;6.604;2022-11-20T09:57:47;15.50;;;7.10;;
16820;SDS011;8527;49.740;6.604;2022-11-20T10:02:53;8.45;;;5.60;;
16820;SDS011;8527;49.740;6.604;2022-11-20T10:07:59;8.48;;;5.10;;
16820;SDS011;8527;49.740;6.604;2022-11-20T10:13:24;12.20;;;4.85;;
16820;SDS011;8527;49.740;6.604;2022-11-20T10:18:40;10.85;;;5.38;;
16820;SDS011;8527;49.740;6.604;2022-11-20T10:23:56;10.25;;;4.60;;
16820;SDS011;8527;49.740;6.604;2022-11-20T10:29:12;9.07;;;5.00;;
16820;SDS011;8527;49.740;6.604;2022-11-20T10:34:16;10.85;;;5.03;;
16820;SDS011;8527;49.740;6.604;2022-11-20T10:39:21;8.65;;;4.40;;
16820;SDS011;8527;49.740;6.604;2022-11-20T10:44:32;8.52;;;3.63;;
16820;SDS011;8527;49.740;6.604;2022-11-20T10:49:48;11.60;;;3.67;;
16820;SDS011;8527;49.740;6.604;2022-11-20T10:54:49;6.90;;;3.53;;
16820;SDS011;8527;49.740;6.604;2022-11-20T11:00:03;7.53;;;3.55;;
16820;SDS011;8527;49.740;6.604;2022-11-20T11:05:12;9.90;;;3.90;;
16820;SDS011;8527;49.740;6.604;2022-11-20T11:10:18;12.13;;;4.40;;
16820;SDS011;8527;49.740;6.604;2022-11-20T11:15:39;10.35;;;4.18;;
16820;SDS011;8527;49.740;6.604;2022-11-20T11:20:38;9.73;;;4.30;;
16820;SDS011;8527;49.740;6.604;2022-11-20T11:25:55;11.73;;;3.70;;
16820;SDS011;8527;49.740;6.604;2022-11-20T11:30:58;7.75;;;3.33;;
16820;SDS011;8527;49.740;6.604;2022-11-20T11:35:57;8.32;;;3.17;;
16820;SDS011;8527;49.740;6.604;2022-11-20T11:40:57;8.20;;;3.10;;
16820;SDS011;8527;49.740;6.604;2022-11-20T11:45:58;8.52;;;2.65;;
16820;SDS011;8527;49.740;6.604;2022-11-20T11:50:57;6.32;;;2.70;;
16820;SDS011;8527;49.740;6.604;2022-11-20T11:56:00;3.97;;;2.30;;
16820;SDS011;8527;49.740;6.604;2022-11-20T12:01:10;11.63;;;2.50;;
16820;SDS011;8527;49.740;6.604;2022-11-20T12:06:21;7.35;;;2.65;;
16820;SDS011;8527;49.740;6.604;2022-11-20T12:11:29;4.40;;;2.65;;
16820;SDS011;8527;49.740;6.604;2022-11-20T12:16:35;6.77;;;2.07;;
16820;SDS011;8527;49.740;6.604;2022-11-20T12:21:36;6.15;;;2.72;;
16820;SDS011;8527;49.740;6.604;2022-11-20T12:26:48;5.95;;;2.78;;
16820;SDS011;8527;49.740;6.604;2022-11-20T12:32:13;6.00;;;2.80;;
16820;SDS011;8527;49.740;6.604;2022-11-20T12:37:33;9.23;;;2.75;;
16820;SDS011;8527;49.740;6.604;2022-11-20T12:42:47;7.80;;;3.00;;
16820;SDS011;8527;49.740;6.604;2022-11-20T12:53:43;5.05;;;2.42;;
16820;SDS011;8527;49.740;6.604;2022-11-20T12:58:58;4.95;;;2.40;;
16820;SDS011;8527;49.740;6.604;2022-11-20T13:04:07;8.38;;;2.50;;
16820;SDS011;8527;49.740;6.604;2022-11-20T13:09:18;7.72;;;2.70;;
16820;SDS011;8527;49.740;6.604;2022-11-20T13:14:24;7.30;;;3.00;;
16820;SDS011;8527;49.740;6.604;2022-11-20T13:19:30;7.32;;;2.20;;
16820;SDS011;8527;49.740;6.604;2022-11-20T13:24:32;5.38;;;2.20;;
16820;SDS011;8527;49.740;6.604;2022-11-20T13:29:36;6.78;;;2.83;;
16820;SDS011;8527;49.740;6.604;2022-11-20T13:34:50;7.07;;;2.67;;
16820;SDS011;8527;49.740;6.604;2022-11-20T13:40:04;8.48;;;2.40;;
16820;SDS011;8527;49.740;6.604;2022-11-20T13:45:09;8.77;;;2.45;;
16820;SDS011;8527;49.740;6.604;2022-11-20T13:50:09;3.53;;;1.95;;
16820;SDS011;8527;49.740;6.604;2022-11-20T13:55:16;6.30;;;2.67;;
16820;SDS011;8527;49.740;6.604;2022-11-20T14:00:19;5.00;;;2.27;;
16820;SDS011;8527;49.740;6.604;2022-11-20T14:05:19;9.68;;;3.72;;
16820;SDS011;8527;49.740;6.604;2022-11-20T14:10:25;7.72;;;2.42;;
16820;SDS011;8527;49.740;6.604;2022-11-20T14:15:28;6.63;;;2.10;;
16820;SDS011;8527;49.740;6.604;2022-11-20T14:20:38;7.03;;;2.60;;
16820;SDS011;8527;49.740;6.604;2022-11-20T14:25:45;5.25;;;2.25;;
16820;SDS011;8527;49.740;6.604;2022-11-20T14:30:47;6.22;;;1.92;;
16820;SDS011;8527;49.740;6.604;2022-11-20T14:35:49;3.95;;;2.05;;
16820;SDS011;8527;49.740;6.604;2022-11-20T14:40:52;5.13;;;2.45;;
16820;SDS011;8527;49.740;6.604;2022-11-20T14:45:57;10.07;;;3.15;;
16820;SDS011;8527;49.740;6.604;2022-11-20T14:51:08;16.08;;;6.32;;
16820;SDS011;8527;49.740;6.604;2022-11-20T14:56:10;8.52;;;3.92;;
16820;SDS011;8527;49.740;6.604;2022-11-20T15:01:12;10.15;;;2.88;;
16820;SDS011;8527;49.740;6.604;2022-11-20T15:06:11;6.63;;;2.65;;
16820;SDS011;8527;49.740;6.604;2022-11-20T15:11:19;6.22;;;2.88;;
16820;SDS011;8527;49.740;6.604;2022-11-20T15:16:23;7.68;;;2.20;;
16820;SDS011;8527;49.740;6.604;2022-11-20T15:21:25;11.80;;;2.47;;
16820;SDS011;8527;49.740;6.604;2022-11-20T15:26:27;6.50;;;2.40;;
16820;SDS011;8527;49.740;6.604;2022-11-20T15:36:36;13.18;;;3.30;;
16820;SDS011;8527;49.740;6.604;2022-11-20T15:41:42;7.47;;;3.10;;
16820;SDS011;8527;49.740;6.604;2022-11-20T15:46:46;9.07;;;3.63;;
16820;SDS011;8527;49.740;6.604;2022-11-20T15:51:51;8.98;;;3.08;;
16820;SDS011;8527;49.740;6.604;2022-11-20T15:56:53;6.22;;;2.75;;
16820;SDS011;8527;49.740;6.604;2022-11-20T16:01:51;5.10;;;3.03;;
16820;SDS011;8527;49.740;6.604;2022-11-20T16:06:50;6.28;;;2.60;;
16820;SDS011;8527;49.740;6.604;2022-11-20T16:11:53;4.47;;;2.20;;
16820;SDS011;8527;49.740;6.604;2022-11-20T16:16:53;8.38;;;2.80;;
16820;SDS011;8527;49.740;6.604;2022-11-20T16:21:51;8.00;;;3.65;;
16820;SDS011;8527;49.740;6.604;2022-11-20T16:26:50;9.52;;;2.85;;
16820;SDS011;8527;49.740;6.604;2022-11-20T16:31:51;4.88;;;2.30;;
16820;SDS011;8527;49.740;6.604;2022-11-20T16:36:49;5.75;;;2.40;;
16820;SDS011;8527;49.740;6.604;2022-11-20T16:41:47;4.47;;;2.10;;
16820;SDS011;8527;49.740;6.604;2022-11-20T16:46:51;7.72;;;2.42;;
16820;SDS011;8527;49.740;6.604;2022-11-20T16:51:49;9.07;;;3.75;;
16820;SDS011;8527;49.740;6.604;2022-11-20T16:56:48;5.80;;;2.92;;
16820;SDS011;8527;49.740;6.604;2022-11-20T17:01:50;6.55;;;2.45;;
16820;SDS011;8527;49.740;6.604;2022-11-20T17:06:55;7.45;;;3.25;;
16820;SDS011;8527;49.740;6.604;2022-11-20T17:12:03;6.30;;;2.85;;
16820;SDS011;8527;49.740;6.604;2022-11-20T17:17:05;3.00;;;2.15;;
16820;SDS011;8527;49.740;6.604;2022-11-20T17:22:06;6.90;;;4.07;;
16820;SDS011;8527;49.740;6.604;2022-11-20T17:27:07;4.55;;;2.38;;
16820;SDS011;8527;49.740;6.604;2022-11-20T17:32:11;6.13;;;2.80;;
16820;SDS011;8527;49.740;6.604;2022-11-20T17:37:10;6.10;;;3.33;;
16820;SDS011;8527;49.740;6.604;2022-11-20T17:42:11;8.88;;;3.33;;
16820;SDS011;8527;49.740;6.604;2022-11-20T17:47:33;3.28;;;2.20;;
16820;SDS011;8527;49.740;6.604;2022-11-20T17:52:32;2.75;;;2.42;;
16820;SDS011;8527;49.740;6.604;2022-11-20T17:57:32;4.20;;;2.22;;
16820;SDS011;8527;49.740;6.604;2022-11-20T18:02:46;2.58;;;2.13;;
16820;SDS011;8527;49.740;6.604;2022-11-20T18:07:46;5.13;;;2.50;;
16820;SDS011;8527;49.740;6.604;2022-11-20T18:12:49;3.80;;;2.50;;
16820;SDS011;8527;49.740;6.604;2022-11-20T18:17:51;6.22;;;2.20;;
16820;SDS011;8527;49.740;6.604;2022-11-20T18:22:51;2.92;;;2.22;;
16820;SDS011;8527;49.740;6.604;2022-11-20T18:27:49;3.70;;;2.40;;
16820;SDS011;8527;49.740;6.604;2022-11-20T18:32:50;2.30;;;2.03;;
16820;SDS011;8527;49.740;6.604;2022-11-20T18:37:55;4.57;;;2.40;;
16820;SDS011;8527;49.740;6.604;2022-11-20T18:42:53;3.47;;;2.80;;
16820;SDS011;8527;49.740;6.604;2022-11-20T18:48:08;8.10;;;3.33;;
16820;SDS011;8527;49.740;6.604;2022-11-20T18:53:07;3.08;;;2.58;;
16820;SDS011;8527;49.740;6.604;2022-11-20T18:58:05;4.60;;;2.80;;
16820;SDS011;8527;49.740;6.604;2022-11-20T19:03:04;9.50;;;3.90;;
16820;SDS011;8527;49.740;6.604;2022-11-20T19:08:05;3.88;;;2.25;;
16820;SDS011;8527;49.740;6.604;2022-11-20T19:13:03;6.90;;;1.92;;
16820;SDS011;8527;49.740;6.604;2022-11-20T19:18:01;5.40;;;3.03;;
16820;SDS011;8527;49.740;6.604;2022-11-20T19:23:00;5.40;;;2.38;;
16820;SDS011;8527;49.740;6.604;2022-11-20T19:28:04;5.53;;;3.30;;
16820;SDS011;8527;49.740;6.604;2022-11-20T19:33:03;3.55;;;2.47;;
16820;SDS011;8527;49.740;6.604;2022-11-20T19:38:06;13.68;;;6.38;;
16820;SDS011;8527;49.740;6.604;2022-11-20T19:43:04;21.95;;;8.45;;
16820;SDS011;8527;49.740;6.604;2022-11-20T19:48:03;28.90;;;11.95;;
16820;SDS011;8527;49.740;6.604;2022-11-20T19:53:02;29.67;;;12.85;;
16820;SDS011;8527;49.740;6.604;2022-11-20T19:58:04;37.88;;;14.32;;
16820;SDS011;8527;49.740;6.604;2022-11-20T20:03:02;29.95;;;13.02;;
16820;SDS011;8527;49.740;6.604;2022-11-20T20:08:01;41.90;;;21.42;;
16820;SDS011;8527;49.740;6.604;2022-11-20T20:12:59;15.52;;;9.25;;
16820;SDS011;8527;49.740;6.604;2022-11-20T20:18:00;10.25;;;5.65;;
16820;SDS011;8527;49.740;6.604;2022-11-20T20:22:59;7.30;;;3.40;;
16820;SDS011;8527;49.740;6.604;2022-11-20T20:28:07;13.15;;;7.28;;
16820;SDS011;8527;49.740;6.604;2022-11-20T20:33:08;4.47;;;2.80;;
16820;SDS011;8527;49.740;6.604;2022-11-20T20:38:07;8.40;;;2.90;;
16820;SDS011;8527;49.740;6.604;2022-11-20T20:43:05;6.82;;;2.70;;
16820;SDS011;8527;49.740;6.604;2022-11-20T20:48:04;12.75;;;5.93;;
16820;SDS011;8527;49.740;6.604;2022-11-20T20:53:08;11.38;;;3.83;;
16820;SDS011;8527;49.740;6.604;2022-11-20T20:58:07;8.85;;;3.35;;
16820;SDS011;8527;49.740;6.604;2022-11-20T21:03:08;6.63;;;3.60;;
16820;SDS011;8527;49.740;6.604;2022-11-20T21:08:10;9.43;;;3.53;;
16820;SDS011;8527;49.740;6.604;2022-11-20T21:13:22;18.85;;;4.68;;
16820;SDS011;8527;49.740;6.604;2022-11-20T21:18:21;7.88;;;3.88;;
16820;SDS011;8527;49.740;6.604;2022-11-20T21:23:23;12.90;;;3.20;;
16820;SDS011;8527;49.740;6.604;2022-11-20T21:28:22;14.30;;;3.60;;
16820;SDS011;8527;49.740;6.604;2022-11-20T21:33:20;8.63;;;3.58;;
16820;SDS011;8527;49.740;6.604;2022-11-20T21:38:19;10.05;;;4.00;;
16820;SDS011;8527;49.740;6.604;2022-11-20T21:43:20;14.05;;;4.45;;
16820;SDS011;8527;49.740;6.604;2022-11-20T21:48:18;8.80;;;3.15;;
16820;SDS011;8527;49.740;6.604;2022-11-20T21:53:17;8.07;;;3.63;;
16820;SDS011;8527;49.740;6.604;2022-11-20T21:58:23;12.38;;;3.63;;
16820;SDS011;8527;49.740;6.604;2022-11-20T22:03:23;14.80;;;3.78;;
16820;SDS011;8527;49.740;6.604;2022-11-20T22:08:21;10.55;;;3.95;;
16820;SDS011;8527;49.740;6.604;2022-11-20T22:13:23;21.10;;;4.20;;
16820;SDS011;8527;49.740;6.604;2022-11-20T22:18:40;18.02;;;4.20;;
16820;SDS011;8527;49.740;6.604;2022-11-20T22:23:39;9.20;;;3.67;;
16820;SDS011;8527;49.740;6.604;2022-11-20T22:28:40;12.60;;;3.65;;
16820;SDS011;8527;49.740;6.604;2022-11-20T22:33:46;10.77;;;4.07;;
16820;SDS011;8527;49.740;6.604;2022-11-20T22:38:51;16.17;;;4.53;;
16820;SDS011;8527;49.740;6.604;2022-11-20T22:43:55;9.77;;;3.58;;
16820;SDS011;8527;49.740;6.604;2022-11-20T22:48:54;10.80;;;3.50;;
16820;SDS011;8527;49.740;6.604;2022-11-20T22:53:57;15.77;;;3.38;;
16820;SDS011;8527;49.740;6.604;2022-11-20T22:59:00;8.48;;;3.38;;
16820;SDS011;8527;49.740;6.604;2022-11-20T23:03:59;11.00;;;4.43;;
16820;SDS011;8527;49.740;6.604;2022-11-20T23:09:00;11.85;;;3.78;;
16820;SDS011;8527;49.740;6.604;2022-11-20T23:14:02;7.43;;;3.05;;
16820;SDS011;8527;49.740;6.604;2022-11-20T23:19:03;11.00;;;3.67;;
16820;SDS011;8527;49.740;6.604;2022-11-20T23:24:04;10.60;;;3.70;;
16820;SDS011;8527;49.740;6.604;2022-11-20T23:29:09;11.43;;;3.75;;
16820;SDS011;8527;49.740;6.604;2022-11-20T23:34:08;9.07;;;3.30;;
16820;SDS011;8527;49.740;6.604;2022-11-20T23:39:06;17.17;;;4.28;;
16820;SDS011;8527;49.740;6.604;2022-11-20T23:44:05;13.32;;;4.75;;
16820;SDS011;8527;49.740;6.604;2022-11-20T23:49:12;14.48;;;4.18;;
16820;SDS011;8527;49.740;6.604;2022-11-20T23:54:11;11.32;;;3.70;;
16820;SDS011;8527;49.740;6.604;2022-11-20T23:59:09;10.40;;;3.72;;
